createdAt,value
2019-05-14T00:00:52.285Z,0.00
2019-05-14T00:01:51.489Z,0.00
2019-05-14T00:02:52.072Z,0.00
2019-05-14T00:03:51.678Z,0.00
2019-05-14T00:04:51.403Z,0.00
2019-05-14T00:05:51.728Z,0.00
2019-05-14T00:06:51.901Z,0.00
2019-05-14T00:07:52.188Z,0.00
2019-05-14T00:08:52.163Z,0.00
2019-05-14T00:09:51.908Z,0.00
2019-05-14T00:10:52.030Z,0.00
2019-05-14T00:11:51.361Z,0.00
2019-05-14T00:12:51.368Z,0.00
2019-05-14T00:13:52.076Z,0.00
2019-05-14T00:14:51.643Z,0.00
2019-05-14T00:15:52.147Z,0.00
2019-05-14T00:16:51.434Z,0.00
2019-05-14T00:17:52.277Z,0.00
2019-05-14T00:18:51.266Z,0.00
2019-05-14T00:20:06.031Z,0.00
2019-05-14T00:20:51.249Z,0.00
2019-05-14T00:21:51.403Z,0.00
2019-05-14T00:22:52.160Z,0.00
2019-05-14T00:23:51.369Z,0.00
2019-05-14T00:24:52.032Z,0.00
2019-05-14T00:25:52.337Z,0.00
2019-05-14T00:26:51.683Z,0.00
2019-05-14T00:27:51.913Z,0.00
2019-05-14T00:28:51.349Z,0.00
2019-05-14T00:29:51.850Z,0.00
2019-05-14T00:30:52.480Z,0.00
2019-05-14T00:31:51.684Z,0.00
2019-05-14T00:32:52.064Z,0.00
2019-05-14T00:33:51.384Z,0.00
2019-05-14T00:34:51.627Z,0.00
2019-05-14T00:35:51.573Z,0.00
2019-05-14T00:36:52.432Z,0.00
2019-05-14T00:37:52.089Z,0.00
2019-05-14T00:38:51.425Z,0.00
2019-05-14T00:39:52.157Z,0.00
2019-05-14T00:40:51.483Z,0.00
2019-05-14T00:41:51.362Z,0.00
2019-05-14T00:42:53.119Z,0.00
2019-05-14T00:43:51.492Z,0.00
2019-05-14T00:44:55.350Z,0.00
2019-05-14T00:45:51.202Z,0.00
2019-05-14T00:46:51.648Z,0.00
2019-05-14T00:47:52.502Z,0.00
2019-05-14T00:48:51.527Z,0.00
2019-05-14T00:49:51.720Z,0.00
2019-05-14T00:50:51.623Z,0.00
2019-05-14T00:51:51.974Z,0.00
2019-05-14T00:52:51.693Z,0.00
2019-05-14T00:53:51.628Z,0.00
2019-05-14T00:54:52.149Z,0.00
2019-05-14T00:55:51.557Z,0.00
2019-05-14T00:56:52.113Z,0.00
2019-05-14T00:57:52.147Z,0.00
2019-05-14T00:58:52.178Z,0.00
2019-05-14T00:59:52.186Z,0.00
2019-05-14T01:00:52.469Z,0.00
2019-05-14T01:01:51.666Z,0.00
2019-05-14T01:02:51.837Z,0.00
2019-05-14T01:03:52.170Z,0.00
2019-05-14T01:04:51.537Z,0.00
2019-05-14T01:05:52.333Z,0.00
2019-05-14T01:06:51.114Z,0.00
2019-05-14T01:07:51.412Z,0.00
2019-05-14T01:08:51.884Z,0.00
2019-05-14T01:09:52.310Z,0.00
2019-05-14T01:10:51.143Z,0.00
2019-05-14T01:11:51.309Z,0.00
2019-05-14T01:12:52.056Z,0.00
2019-05-14T01:13:52.261Z,0.00
2019-05-14T01:14:52.877Z,0.00
2019-05-14T01:15:52.172Z,0.00
2019-05-14T01:16:51.440Z,0.00
2019-05-14T01:17:51.595Z,0.00
2019-05-14T01:18:51.329Z,0.00
2019-05-14T01:19:51.320Z,0.00
2019-05-14T01:20:51.903Z,0.00
2019-05-14T01:21:51.092Z,0.00
2019-05-14T01:22:51.565Z,0.00
2019-05-14T01:23:51.421Z,0.00
2019-05-14T01:24:52.218Z,0.00
2019-05-14T01:25:51.625Z,0.00
2019-05-14T01:26:52.301Z,0.00
2019-05-14T01:27:51.777Z,0.00
2019-05-14T01:28:51.330Z,0.00
2019-05-14T01:29:51.352Z,0.00
2019-05-14T01:30:51.876Z,0.00
2019-05-14T01:31:52.023Z,0.00
2019-05-14T01:32:51.161Z,0.00
2019-05-14T01:33:51.538Z,0.00
2019-05-14T01:34:52.156Z,0.00
2019-05-14T01:35:51.423Z,0.00
2019-05-14T01:36:52.786Z,0.00
2019-05-14T01:37:52.180Z,0.00
2019-05-14T01:38:51.323Z,0.00
2019-05-14T01:39:52.004Z,0.00
2019-05-14T01:40:52.441Z,0.00
2019-05-14T01:41:51.708Z,0.00
2019-05-14T01:42:52.195Z,0.00
2019-05-14T01:43:51.310Z,0.00
2019-05-14T01:44:51.861Z,0.00
2019-05-14T01:45:52.484Z,0.00
2019-05-14T01:46:51.276Z,0.00
2019-05-14T01:47:52.090Z,0.00
2019-05-14T01:48:52.119Z,0.00
2019-05-14T01:49:51.561Z,0.00
2019-05-14T01:50:52.072Z,0.00
2019-05-14T01:51:51.205Z,0.00
2019-05-14T01:52:51.992Z,0.00
2019-05-14T01:53:52.059Z,0.00
2019-05-14T01:54:51.522Z,0.00
2019-05-14T01:55:51.968Z,0.00
2019-05-14T01:56:51.450Z,0.00
2019-05-14T01:57:51.758Z,0.00
2019-05-14T01:58:52.313Z,0.00
2019-05-14T01:59:51.657Z,0.00
2019-05-14T02:00:52.336Z,0.00
2019-05-14T02:01:51.769Z,0.00
2019-05-14T02:02:52.398Z,0.00
2019-05-14T02:03:51.850Z,0.00
2019-05-14T02:04:51.318Z,0.00
2019-05-14T02:05:52.137Z,0.00
2019-05-14T02:06:51.477Z,0.00
2019-05-14T02:07:52.391Z,0.00
2019-05-14T02:08:51.520Z,0.00
2019-05-14T02:09:51.841Z,0.00
2019-05-14T02:10:52.465Z,0.00
2019-05-14T02:11:51.891Z,0.00
2019-05-14T02:12:51.543Z,0.00
2019-05-14T02:13:51.849Z,0.00
2019-05-14T02:14:51.250Z,0.00
2019-05-14T02:15:51.968Z,0.00
2019-05-14T02:16:51.208Z,0.00
2019-05-14T02:17:51.881Z,0.00
2019-05-14T02:18:52.235Z,0.00
2019-05-14T02:19:51.527Z,0.00
2019-05-14T02:20:52.019Z,0.00
2019-05-14T02:21:51.422Z,0.00
2019-05-14T02:22:52.363Z,0.00
2019-05-14T02:23:51.357Z,0.00
2019-05-14T02:24:51.939Z,0.00
2019-05-14T02:25:51.863Z,0.00
2019-05-14T02:26:51.471Z,0.00
2019-05-14T02:27:51.955Z,0.00
2019-05-14T02:28:51.425Z,0.00
2019-05-14T02:29:51.951Z,0.00
2019-05-14T02:30:57.465Z,0.00
2019-05-14T02:31:50.636Z,0.00
2019-05-14T02:32:50.304Z,0.00
2019-05-14T02:33:50.749Z,0.00
2019-05-14T02:34:50.441Z,0.00
2019-05-14T02:35:50.322Z,0.00
2019-05-14T02:36:50.282Z,0.00
2019-05-14T02:37:50.653Z,0.00
2019-05-14T02:38:50.272Z,0.00
2019-05-14T02:39:50.489Z,0.00
2019-05-14T02:40:50.292Z,0.00
2019-05-14T02:41:50.257Z,0.00
2019-05-14T02:42:50.249Z,0.00
2019-05-14T02:43:50.628Z,0.00
2019-05-14T02:44:50.244Z,0.00
2019-05-14T02:46:09.620Z,0.00
2019-05-14T02:46:50.725Z,0.00
2019-05-14T02:47:50.599Z,0.00
2019-05-14T02:48:50.230Z,4.00
2019-05-14T02:49:50.479Z,4.00
2019-05-14T02:50:50.240Z,0.00
2019-05-14T02:51:50.687Z,4.00
2019-05-14T02:52:50.200Z,4.00
2019-05-14T02:53:50.202Z,4.00
2019-05-14T02:54:50.189Z,4.00
2019-05-14T02:55:50.229Z,4.00
2019-05-14T02:56:50.183Z,8.00
2019-05-14T02:57:50.400Z,8.00
2019-05-14T02:58:50.233Z,8.00
2019-05-14T02:59:50.593Z,12.00
2019-05-14T03:00:50.204Z,8.00
2019-05-14T03:01:50.547Z,12.00
2019-05-14T03:02:50.155Z,16.00
2019-05-14T03:03:50.145Z,16.00
2019-05-14T03:04:50.202Z,24.00
2019-05-14T03:05:50.134Z,24.00
2019-05-14T03:06:50.182Z,28.00
2019-05-14T03:07:50.327Z,36.00
2019-05-14T03:08:50.116Z,40.00
2019-05-14T03:09:50.523Z,48.00
2019-05-14T03:10:50.763Z,56.00
2019-05-14T03:11:50.136Z,64.00
2019-05-14T03:12:50.561Z,72.00
2019-05-14T03:13:50.101Z,88.00
2019-05-14T03:14:50.258Z,100.00
2019-05-14T03:15:50.237Z,112.00
2019-05-14T03:16:50.147Z,124.00
2019-05-14T03:17:50.074Z,144.00
2019-05-14T03:18:50.500Z,160.00
2019-05-14T03:19:50.073Z,180.00
2019-05-14T03:20:50.502Z,204.00
2019-05-14T03:21:50.469Z,228.00
2019-05-14T03:23:02.650Z,252.00
2019-05-14T03:23:50.053Z,276.00
2019-05-14T03:24:50.473Z,308.00
2019-05-14T03:25:50.039Z,336.00
2019-05-14T03:26:50.342Z,368.00
2019-05-14T03:27:50.050Z,400.00
2019-05-14T03:28:50.167Z,440.00
2019-05-14T03:29:50.381Z,476.00
2019-05-14T03:30:52.114Z,520.00
2019-05-14T03:31:52.580Z,560.00
2019-05-14T03:32:52.675Z,608.00
2019-05-14T03:33:52.328Z,656.00
2019-05-14T03:34:52.870Z,704.00
2019-05-14T03:35:57.973Z,752.00
2019-05-14T03:36:52.885Z,808.00
2019-05-14T03:37:50.080Z,852.00
2019-05-14T03:38:50.343Z,900.00
2019-05-14T03:39:49.964Z,944.00
2019-05-14T03:40:49.965Z,996.00
2019-05-14T03:41:50.230Z,1040.00
2019-05-14T03:42:49.947Z,1084.00
2019-05-14T03:43:49.950Z,1136.00
2019-05-14T03:44:49.959Z,1180.00
2019-05-14T03:45:49.946Z,1228.00
2019-05-14T03:46:55.224Z,1288.00
2019-05-14T03:47:50.700Z,1348.00
2019-05-14T03:48:49.927Z,1404.00
2019-05-14T03:49:50.177Z,1472.00
2019-05-14T03:50:49.935Z,1536.00
2019-05-14T03:51:50.097Z,1608.00
2019-05-14T03:52:50.207Z,1676.00
2019-05-14T03:54:01.378Z,1748.00
2019-05-14T03:54:50.135Z,1808.00
2019-05-14T03:55:50.691Z,1872.00
2019-05-14T03:56:50.053Z,1960.00
2019-05-14T03:57:50.305Z,2048.00
2019-05-14T03:58:49.866Z,2148.00
2019-05-14T03:59:50.306Z,2256.00
2019-05-14T04:00:50.602Z,2360.00
2019-05-14T04:01:51.174Z,2456.00
2019-05-14T04:02:49.884Z,2532.00
2019-05-14T04:03:50.572Z,2596.00
2019-05-14T04:04:50.492Z,2660.00
2019-05-14T04:05:50.161Z,2740.00
2019-05-14T04:06:49.989Z,2804.00
2019-05-14T04:07:50.384Z,2872.00
2019-05-14T04:08:50.023Z,2940.00
2019-05-14T04:09:49.817Z,3004.00
2019-05-14T04:10:54.026Z,3080.00
2019-05-14T04:11:50.300Z,3144.00
2019-05-14T04:12:49.827Z,3212.00
2019-05-14T04:13:49.937Z,3280.00
2019-05-14T04:14:50.369Z,3348.00
2019-05-14T04:15:50.073Z,3404.00
2019-05-14T04:17:03.897Z,3412.00
2019-05-14T04:17:50.421Z,3412.00
2019-05-14T04:18:50.390Z,3436.00
2019-05-14T04:19:50.137Z,3548.00
2019-05-14T04:20:50.290Z,3700.00
2019-05-14T04:21:49.747Z,3720.00
2019-05-14T04:22:50.221Z,3604.00
2019-05-14T04:23:50.980Z,3608.00
2019-05-14T04:24:50.048Z,3696.00
2019-05-14T04:25:50.038Z,3724.00
2019-05-14T04:27:02.389Z,3696.00
2019-05-14T04:27:49.754Z,3768.00
2019-05-14T04:28:50.281Z,3884.00
2019-05-14T04:29:50.067Z,3988.00
2019-05-14T04:30:49.713Z,4096.00
2019-05-14T04:31:50.416Z,4400.00
2019-05-14T04:32:50.705Z,4568.00
2019-05-14T04:33:50.281Z,4632.00
2019-05-14T04:34:50.055Z,4692.00
2019-05-14T04:35:49.690Z,4776.00
2019-05-14T04:36:50.440Z,4844.00
2019-05-14T04:37:49.845Z,4904.00
2019-05-14T04:38:54.144Z,4972.00
2019-05-14T04:39:50.572Z,5008.00
2019-05-14T04:40:49.688Z,5036.00
2019-05-14T04:41:49.949Z,5108.00
2019-05-14T04:42:50.547Z,5164.00
2019-05-14T04:43:50.212Z,5212.00
2019-05-14T04:44:50.558Z,5332.00
2019-05-14T04:45:49.975Z,5396.00
2019-05-14T04:46:49.709Z,5432.00
2019-05-14T04:47:50.192Z,5544.00
2019-05-14T04:48:51.083Z,5636.00
2019-05-14T04:49:50.535Z,5624.00
2019-05-14T04:50:49.942Z,5692.00
2019-05-14T04:51:50.499Z,5848.00
2019-05-14T04:52:49.783Z,6004.00
2019-05-14T04:53:50.260Z,6136.00
2019-05-14T04:54:50.153Z,6236.00
2019-05-14T04:55:50.023Z,6444.00
2019-05-14T04:56:50.669Z,6588.00
2019-05-14T04:57:50.298Z,6548.00
2019-05-14T04:58:50.281Z,6576.00
2019-05-14T04:59:49.831Z,6608.00
2019-05-14T05:00:50.121Z,6548.00
2019-05-14T05:01:49.680Z,6528.00
2019-05-14T05:02:50.051Z,6668.00
2019-05-14T05:03:50.541Z,6736.00
2019-05-14T05:04:50.727Z,6740.00
2019-05-14T05:05:50.126Z,6876.00
2019-05-14T05:06:50.237Z,7092.00
2019-05-14T05:07:49.581Z,7152.00
2019-05-14T05:08:50.138Z,7180.00
2019-05-14T05:09:50.519Z,7340.00
2019-05-14T05:10:49.819Z,7356.00
2019-05-14T05:11:50.052Z,7316.00
2019-05-14T05:12:49.588Z,7444.00
2019-05-14T05:13:49.601Z,7592.00
2019-05-14T05:14:49.620Z,7736.00
2019-05-14T05:15:49.559Z,7940.00
2019-05-14T05:16:49.564Z,8120.00
2019-05-14T05:17:52.861Z,8328.00
2019-05-14T05:18:49.648Z,8640.00
2019-05-14T05:19:51.527Z,8796.00
2019-05-14T05:20:50.735Z,8740.00
2019-05-14T05:21:49.553Z,8708.00
2019-05-14T05:22:49.544Z,8696.00
2019-05-14T05:23:49.596Z,8832.00
2019-05-14T05:24:49.555Z,9052.00
2019-05-14T05:25:49.541Z,9140.00
2019-05-14T05:26:49.549Z,9124.00
2019-05-14T05:27:49.540Z,8972.00
2019-05-14T05:29:02.846Z,8896.00
2019-05-14T05:29:49.541Z,9128.00
2019-05-14T05:30:49.537Z,9288.00
2019-05-14T05:31:49.529Z,9216.00
2019-05-14T05:32:49.675Z,9200.00
2019-05-14T05:33:49.557Z,9272.00
2019-05-14T05:34:49.527Z,9288.00
2019-05-14T05:35:49.538Z,9252.00
2019-05-14T05:36:49.546Z,9516.00
2019-05-14T05:37:49.528Z,9744.00
2019-05-14T05:38:49.553Z,9756.00
2019-05-14T05:39:49.528Z,9676.00
2019-05-14T05:40:49.525Z,9676.00
2019-05-14T05:41:49.525Z,9640.00
2019-05-14T05:42:49.522Z,9616.00
2019-05-14T05:43:49.556Z,9624.00
2019-05-14T05:44:49.522Z,9728.00
2019-05-14T05:45:49.520Z,9752.00
2019-05-14T05:46:49.559Z,9748.00
2019-05-14T05:47:57.807Z,9844.00
2019-05-14T05:48:49.521Z,9840.00
2019-05-14T05:49:49.548Z,9880.00
2019-05-14T05:50:49.516Z,10188.00
2019-05-14T05:51:49.517Z,10488.00
2019-05-14T05:52:53.159Z,11012.00
2019-05-14T05:53:49.516Z,11696.00
2019-05-14T05:54:49.545Z,14128.00
2019-05-14T05:55:49.516Z,16364.00
2019-05-14T05:56:49.513Z,16308.00
2019-05-14T05:57:49.520Z,15632.00
2019-05-14T05:58:49.516Z,15444.00
2019-05-14T05:59:49.553Z,15352.00
2019-05-14T06:00:49.864Z,14560.00
2019-05-14T06:01:50.413Z,13436.00
2019-05-14T06:02:49.517Z,12612.00
2019-05-14T06:03:49.604Z,12840.00
2019-05-14T06:04:49.545Z,12988.00
2019-05-14T06:05:49.518Z,13044.00
2019-05-14T06:06:49.516Z,13684.00
2019-05-14T06:07:49.526Z,13368.00
2019-05-14T06:08:49.615Z,12856.00
2019-05-14T06:09:49.547Z,11400.00
2019-05-14T06:10:49.518Z,11116.00
2019-05-14T06:11:49.517Z,9672.00
2019-05-14T06:12:49.519Z,8672.00
2019-05-14T06:13:49.517Z,8232.00
2019-05-14T06:14:49.546Z,8212.00
2019-05-14T06:15:52.250Z,8988.00
2019-05-14T06:16:49.517Z,10060.00
2019-05-14T06:17:49.527Z,9332.00
2019-05-14T06:18:49.542Z,8772.00
2019-05-14T06:19:49.556Z,8748.00
2019-05-14T06:20:49.619Z,8424.00
2019-05-14T06:21:49.531Z,7728.00
2019-05-14T06:22:49.520Z,7620.00
2019-05-14T06:23:49.612Z,7768.00
2019-05-14T06:24:49.545Z,7852.00
2019-05-14T06:25:49.523Z,8052.00
2019-05-14T06:26:49.522Z,8140.00
2019-05-14T06:27:49.518Z,8272.00
2019-05-14T06:28:49.916Z,8504.00
2019-05-14T06:29:49.543Z,8760.00
2019-05-14T06:30:49.517Z,8804.00
2019-05-14T06:31:49.688Z,8664.00
2019-05-14T06:32:49.517Z,8808.00
2019-05-14T06:33:49.518Z,9320.00
2019-05-14T06:34:49.548Z,9260.00
2019-05-14T06:35:49.514Z,9500.00
2019-05-14T06:36:49.517Z,9768.00
2019-05-14T06:37:49.522Z,9492.00
2019-05-14T06:38:49.890Z,9460.00
2019-05-14T06:39:49.516Z,10108.00
2019-05-14T06:40:49.542Z,11328.00
2019-05-14T06:41:49.518Z,12752.00
2019-05-14T06:42:49.516Z,13648.00
2019-05-14T06:43:49.514Z,14008.00
2019-05-14T06:44:49.552Z,14720.00
2019-05-14T06:45:49.757Z,15948.00
2019-05-14T06:46:52.584Z,17240.00
2019-05-14T06:47:49.507Z,18592.00
2019-05-14T06:48:49.511Z,18848.00
2019-05-14T06:49:49.510Z,18944.00
2019-05-14T06:50:50.391Z,19040.00
2019-05-14T06:51:49.502Z,19456.00
2019-05-14T06:52:49.514Z,19840.00
2019-05-14T06:53:50.017Z,20384.00
2019-05-14T06:54:49.852Z,20992.00
2019-05-14T06:55:49.534Z,21504.00
2019-05-14T06:56:49.509Z,21760.00
2019-05-14T06:57:49.506Z,22336.00
2019-05-14T06:58:49.500Z,22784.00
2019-05-14T06:59:49.507Z,23392.00
2019-05-14T07:00:49.647Z,23872.00
2019-05-14T07:01:49.507Z,24416.00
2019-05-14T07:02:49.503Z,23488.00
2019-05-14T07:03:49.553Z,22048.00
2019-05-14T07:04:49.510Z,20640.00
2019-05-14T07:05:49.527Z,18688.00
2019-05-14T07:06:49.504Z,16476.00
2019-05-14T07:07:49.586Z,15440.00
2019-05-14T07:08:52.545Z,15564.00
2019-05-14T07:09:49.503Z,16260.00
2019-05-14T07:10:49.528Z,15880.00
2019-05-14T07:11:49.507Z,14564.00
2019-05-14T07:12:50.036Z,13532.00
2019-05-14T07:13:49.520Z,12236.00
2019-05-14T07:14:49.502Z,10164.00
2019-05-14T07:15:49.531Z,9164.00
2019-05-14T07:16:49.511Z,9948.00
2019-05-14T07:17:49.506Z,12800.00
2019-05-14T07:18:53.576Z,16992.00
2019-05-14T07:19:49.504Z,19808.00
2019-05-14T07:20:49.531Z,21536.00
2019-05-14T07:21:49.503Z,22848.00
2019-05-14T07:22:49.506Z,23456.00
2019-05-14T07:23:49.521Z,23584.00
2019-05-14T07:24:49.996Z,23232.00
2019-05-14T07:25:49.530Z,21600.00
2019-05-14T07:26:49.627Z,19712.00
2019-05-14T07:27:49.505Z,19840.00
2019-05-14T07:28:49.504Z,21472.00
2019-05-14T07:29:49.504Z,22496.00
2019-05-14T07:30:49.530Z,23872.00
2019-05-14T07:31:49.507Z,24544.00
2019-05-14T07:32:49.511Z,23392.00
2019-05-14T07:33:49.645Z,22112.00
2019-05-14T07:34:49.506Z,21408.00
2019-05-14T07:35:49.548Z,22464.00
2019-05-14T07:36:49.518Z,23712.00
2019-05-14T07:37:49.509Z,26976.00
2019-05-14T07:38:49.546Z,26400.00
2019-05-14T07:39:49.510Z,22496.00
2019-05-14T07:40:49.680Z,16184.00
2019-05-14T07:41:49.552Z,13620.00
2019-05-14T07:42:49.512Z,15908.00
2019-05-14T07:43:49.509Z,17860.00
2019-05-14T07:44:49.518Z,18528.00
2019-05-14T07:45:49.519Z,15216.00
2019-05-14T07:46:49.544Z,15556.00
2019-05-14T07:47:49.516Z,17748.00
2019-05-14T07:49:03.857Z,17500.00
2019-05-14T07:49:49.523Z,17024.00
2019-05-14T07:50:52.064Z,17336.00
2019-05-14T07:51:49.553Z,18784.00
2019-05-14T07:52:49.848Z,20576.00
2019-05-14T07:53:49.525Z,21728.00
2019-05-14T07:54:49.525Z,22080.00
2019-05-14T07:55:49.525Z,22656.00
2019-05-14T07:56:52.800Z,21440.00
2019-05-14T07:57:49.529Z,21664.00
2019-05-14T07:58:49.528Z,26464.00
2019-05-14T07:59:49.540Z,51744.00
2019-05-14T08:00:49.533Z,49152.00
2019-05-14T08:01:49.578Z,48352.00
2019-05-14T08:02:49.533Z,44960.00
2019-05-14T08:03:49.537Z,43104.00
2019-05-14T08:04:49.541Z,46528.00
2019-05-14T08:05:49.556Z,48960.00
2019-05-14T08:06:49.589Z,28864.00
2019-05-14T08:07:49.571Z,44032.00
2019-05-14T08:08:49.627Z,40512.00
2019-05-14T08:09:49.553Z,16576.00
2019-05-14T08:10:49.555Z,14992.00
2019-05-14T08:11:49.585Z,14744.00
2019-05-14T08:12:49.569Z,15252.00
2019-05-14T08:13:49.705Z,19744.00
2019-05-14T08:15:09.549Z,19232.00
2019-05-14T08:15:49.576Z,21792.00
2019-05-14T08:16:49.605Z,23456.00
2019-05-14T08:17:49.577Z,21696.00
2019-05-14T08:18:49.624Z,20896.00
2019-05-14T08:19:49.586Z,21344.00
2019-05-14T08:20:49.592Z,22688.00
2019-05-14T08:21:49.624Z,39328.00
2019-05-14T08:22:49.601Z,21024.00
2019-05-14T08:23:49.597Z,18720.00
2019-05-14T08:24:49.601Z,17704.00
2019-05-14T08:25:49.602Z,25088.00
2019-05-14T08:26:49.631Z,21600.00
2019-05-14T08:27:49.614Z,18432.00
2019-05-14T08:28:49.609Z,18592.00
2019-05-14T08:29:49.618Z,17120.00
2019-05-14T08:30:49.623Z,35296.00
2019-05-14T08:31:49.646Z,34240.00
2019-05-14T08:32:49.619Z,34016.00
2019-05-14T08:33:49.627Z,33632.00
2019-05-14T08:34:49.624Z,33472.00
2019-05-14T08:35:49.626Z,33792.00
2019-05-14T08:36:49.655Z,35872.00
2019-05-14T08:38:04.386Z,38176.00
2019-05-14T08:38:50.262Z,39520.00
2019-05-14T08:39:49.637Z,44096.00
2019-05-14T08:40:49.642Z,47712.00
2019-05-14T08:41:55.788Z,43552.00
2019-05-14T08:42:49.656Z,31296.00
2019-05-14T08:43:49.663Z,45344.00
2019-05-14T08:44:51.414Z,44608.00
2019-05-14T08:45:49.659Z,43168.00
2019-05-14T08:46:49.699Z,42976.00
2019-05-14T08:47:49.664Z,40992.00
2019-05-14T08:48:50.022Z,40544.00
2019-05-14T08:49:50.916Z,41248.00
2019-05-14T08:50:49.685Z,43584.00
2019-05-14T08:51:49.722Z,47264.00
2019-05-14T08:52:49.723Z,50944.00
2019-05-14T08:53:50.521Z,51200.00
2019-05-14T08:55:05.391Z,48928.00
2019-05-14T08:55:49.713Z,49280.00
2019-05-14T08:56:49.729Z,48256.00
2019-05-14T08:57:49.861Z,22112.00
2019-05-14T08:58:49.822Z,17792.00
2019-05-14T08:59:49.739Z,15088.00
2019-05-14T09:00:49.748Z,14460.00
2019-05-14T09:02:05.207Z,14548.00
2019-05-14T09:02:49.788Z,17120.00
2019-05-14T09:03:49.943Z,21184.00
2019-05-14T09:04:54.139Z,56256.00
2019-05-14T09:05:49.780Z,58368.00
2019-05-14T09:06:49.779Z,60800.00
2019-05-14T09:07:49.817Z,59104.00
2019-05-14T09:08:50.142Z,56608.00
2019-05-14T09:09:49.856Z,57568.00
2019-05-14T09:10:49.949Z,42432.00
2019-05-14T09:11:50.518Z,57408.00
2019-05-14T09:12:49.855Z,56992.00
2019-05-14T09:13:49.825Z,59712.00
2019-05-14T09:14:49.832Z,60704.00
2019-05-14T09:15:49.848Z,26336.00
2019-05-14T09:16:51.052Z,37280.00
2019-05-14T09:17:49.899Z,62464.00
2019-05-14T09:18:49.866Z,61984.00
2019-05-14T09:20:02.068Z,65376.00
2019-05-14T09:20:49.879Z,66304.00
2019-05-14T09:21:49.886Z,66304.00
2019-05-14T09:22:49.919Z,29408.00
2019-05-14T09:23:49.905Z,28640.00
2019-05-14T09:24:49.920Z,27232.00
2019-05-14T09:25:53.211Z,27136.00
2019-05-14T09:26:49.920Z,56384.00
2019-05-14T09:27:49.957Z,31328.00
2019-05-14T09:28:49.945Z,32192.00
2019-05-14T09:29:50.099Z,76032.00
2019-05-14T09:30:49.975Z,78432.00
2019-05-14T09:31:49.965Z,74464.00
2019-05-14T09:32:49.993Z,75968.00
2019-05-14T09:33:49.971Z,76128.00
2019-05-14T09:34:49.981Z,69216.00
2019-05-14T09:35:49.997Z,74496.00
2019-05-14T09:36:49.998Z,74048.00
2019-05-14T09:37:51.387Z,64928.00
2019-05-14T09:38:50.071Z,34752.00
2019-05-14T09:39:50.022Z,79360.00
2019-05-14T09:41:06.628Z,82048.00
2019-05-14T09:41:50.046Z,81952.00
2019-05-14T09:42:50.287Z,86944.00
2019-05-14T09:43:50.058Z,92512.00
2019-05-14T09:44:50.071Z,85440.00
2019-05-14T09:45:50.074Z,91392.00
2019-05-14T09:46:50.114Z,98560.00
2019-05-14T09:47:50.787Z,102688.00
2019-05-14T09:48:50.105Z,51584.00
2019-05-14T09:49:50.116Z,65408.00
2019-05-14T09:50:50.130Z,41408.00
2019-05-14T09:51:50.162Z,41664.00
2019-05-14T09:52:50.148Z,92960.00
2019-05-14T09:53:50.183Z,42144.00
2019-05-14T09:54:50.175Z,35040.00
2019-05-14T09:55:50.176Z,37184.00
2019-05-14T09:56:50.185Z,35584.00
2019-05-14T09:57:50.186Z,44256.00
2019-05-14T09:58:50.225Z,37824.00
2019-05-14T09:59:50.204Z,33088.00
2019-05-14T10:00:50.212Z,30208.00
2019-05-14T10:01:50.853Z,28704.00
2019-05-14T10:02:50.233Z,27136.00
2019-05-14T10:03:50.266Z,25248.00
2019-05-14T10:04:50.239Z,23872.00
2019-05-14T10:05:50.331Z,22944.00
2019-05-14T10:06:50.253Z,22624.00
2019-05-14T10:07:50.259Z,22656.00
2019-05-14T10:08:50.301Z,23648.00
2019-05-14T10:09:50.275Z,24832.00
2019-05-14T10:10:50.284Z,23680.00
2019-05-14T10:11:50.279Z,21696.00
2019-05-14T10:12:56.381Z,20192.00
2019-05-14T10:13:50.316Z,21376.00
2019-05-14T10:14:50.296Z,23392.00
2019-05-14T10:15:50.297Z,25664.00
2019-05-14T10:16:50.296Z,25440.00
2019-05-14T10:17:50.297Z,24000.00
2019-05-14T10:18:52.872Z,24800.00
2019-05-14T10:19:50.311Z,24608.00
2019-05-14T10:20:50.325Z,25824.00
2019-05-14T10:21:50.313Z,26688.00
2019-05-14T10:22:50.313Z,27200.00
2019-05-14T10:23:50.346Z,26848.00
2019-05-14T10:24:50.318Z,45728.00
2019-05-14T10:25:50.316Z,129632.00
2019-05-14T10:26:50.343Z,120864.00
2019-05-14T10:27:50.333Z,115968.00
2019-05-14T10:28:50.359Z,152608.00
2019-05-14T10:29:50.335Z,57472.00
2019-05-14T10:30:50.336Z,55200.00
2019-05-14T10:31:50.338Z,66432.00
2019-05-14T10:32:50.343Z,35968.00
2019-05-14T10:33:50.379Z,29088.00
2019-05-14T10:34:50.352Z,23168.00
2019-05-14T10:35:50.353Z,17632.00
2019-05-14T10:36:50.363Z,13504.00
2019-05-14T10:37:54.183Z,11772.00
2019-05-14T10:38:50.394Z,10720.00
2019-05-14T10:39:50.370Z,9160.00
2019-05-14T10:40:50.374Z,8408.00
2019-05-14T10:41:50.381Z,8928.00
2019-05-14T10:42:50.382Z,10432.00
2019-05-14T10:43:50.406Z,13488.00
2019-05-14T10:44:50.382Z,18592.00
2019-05-14T10:45:50.385Z,22976.00
2019-05-14T10:46:50.390Z,25472.00
2019-05-14T10:47:50.386Z,31360.00
2019-05-14T10:48:50.418Z,41152.00
2019-05-14T10:49:50.400Z,36096.00
2019-05-14T10:51:02.821Z,36640.00
2019-05-14T10:51:50.404Z,38816.00
2019-05-14T10:52:50.404Z,138400.00
2019-05-14T10:53:50.430Z,37280.00
2019-05-14T10:54:55.732Z,31712.00
2019-05-14T10:55:50.412Z,32288.00
2019-05-14T10:56:50.418Z,27520.00
2019-05-14T10:57:54.201Z,20576.00
2019-05-14T10:58:50.445Z,13892.00
2019-05-14T10:59:50.416Z,10780.00
2019-05-14T11:00:50.419Z,8820.00
2019-05-14T11:01:50.434Z,7896.00
2019-05-14T11:02:50.419Z,7524.00
2019-05-14T11:03:50.437Z,7588.00
2019-05-14T11:04:50.448Z,8476.00
2019-05-14T11:05:50.431Z,10312.00
2019-05-14T11:06:50.422Z,13568.00
2019-05-14T11:07:50.426Z,14036.00
2019-05-14T11:08:50.432Z,13996.00
2019-05-14T11:09:50.456Z,13828.00
2019-05-14T11:10:50.432Z,13800.00
2019-05-14T11:11:50.431Z,14860.00
2019-05-14T11:12:54.854Z,16688.00
2019-05-14T11:13:51.242Z,19008.00
2019-05-14T11:14:50.459Z,21952.00
2019-05-14T11:15:50.438Z,25792.00
2019-05-14T11:16:50.435Z,31424.00
2019-05-14T11:17:50.440Z,36480.00
2019-05-14T11:18:50.427Z,44960.00
2019-05-14T11:19:50.464Z,58112.00
2019-05-14T11:20:51.493Z,37984.00
2019-05-14T11:21:50.436Z,35552.00
2019-05-14T11:22:50.428Z,32128.00
2019-05-14T11:23:50.439Z,29024.00
2019-05-14T11:24:50.459Z,26880.00
2019-05-14T11:25:50.436Z,26272.00
2019-05-14T11:26:50.436Z,27552.00
2019-05-14T11:27:50.439Z,28672.00
2019-05-14T11:28:50.436Z,27840.00
2019-05-14T11:29:50.461Z,23520.00
2019-05-14T11:30:50.438Z,34848.00
2019-05-14T11:31:50.442Z,16588.00
2019-05-14T11:32:50.437Z,13792.00
2019-05-14T11:33:50.569Z,12672.00
2019-05-14T11:34:50.461Z,11604.00
2019-05-14T11:35:50.438Z,10660.00
2019-05-14T11:36:50.442Z,10148.00
2019-05-14T11:37:50.440Z,9504.00
2019-05-14T11:38:51.074Z,9040.00
2019-05-14T11:39:50.469Z,8796.00
2019-05-14T11:40:50.437Z,9064.00
2019-05-14T11:41:50.445Z,10928.00
2019-05-14T11:42:50.437Z,14068.00
2019-05-14T11:43:50.445Z,19040.00
2019-05-14T11:44:50.471Z,25472.00
2019-05-14T11:45:50.441Z,69408.00
2019-05-14T11:46:57.018Z,33952.00
2019-05-14T11:47:50.439Z,33920.00
2019-05-14T11:48:50.440Z,72544.00
2019-05-14T11:49:50.469Z,116928.00
2019-05-14T11:50:50.439Z,86976.00
2019-05-14T11:52:08.677Z,43520.00
2019-05-14T11:52:50.441Z,45600.00
2019-05-14T11:53:50.441Z,45824.00
2019-05-14T11:54:50.470Z,48480.00
2019-05-14T11:55:50.670Z,45984.00
2019-05-14T11:56:50.443Z,40512.00
2019-05-14T11:57:50.453Z,40768.00
2019-05-14T11:58:50.445Z,92640.00
2019-05-14T11:59:50.475Z,134944.00
2019-05-14T12:00:50.449Z,86944.00
2019-05-14T12:01:50.454Z,129152.00
2019-05-14T12:02:50.455Z,106560.00
2019-05-14T12:03:50.729Z,52160.00
2019-05-14T12:04:50.485Z,126400.00
2019-05-14T12:05:50.492Z,133408.00
2019-05-14T12:06:50.462Z,130208.00
2019-05-14T12:07:50.476Z,139136.00
2019-05-14T12:08:50.478Z,141248.00
2019-05-14T12:09:52.395Z,142592.00
2019-05-14T12:10:50.486Z,149184.00
2019-05-14T12:11:50.517Z,149664.00
2019-05-14T12:12:50.499Z,71104.00